createdAt,value
2017-09-11T00:02:01.203Z,12.30
2017-09-11T00:04:27.411Z,12.30
2017-09-11T00:06:53.582Z,12.30
2017-09-11T00:09:19.780Z,12.20
2017-09-11T00:11:46.713Z,12.20
2017-09-11T00:14:12.939Z,12.20
2017-09-11T00:16:39.907Z,12.20
2017-09-11T00:19:06.830Z,12.20
2017-09-11T00:21:33.787Z,12.10
2017-09-11T00:24:00.727Z,12.10
2017-09-11T00:26:27.638Z,12.00
2017-09-11T00:28:53.853Z,12.00
2017-09-11T00:31:20.039Z,12.00
2017-09-11T00:33:46.968Z,11.90
2017-09-11T00:36:13.916Z,11.90
2017-09-11T00:38:40.832Z,11.90
2017-09-11T00:41:07.001Z,11.90
2017-09-11T00:43:33.923Z,12.10
2017-09-11T00:46:00.140Z,12.00
2017-09-11T00:48:26.345Z,12.00
2017-09-11T00:50:52.534Z,12.00
2017-09-11T00:53:19.473Z,12.10
2017-09-11T00:55:46.361Z,12.00
2017-09-11T00:58:12.552Z,12.00
2017-09-11T01:00:39.506Z,11.90
2017-09-11T01:03:06.504Z,11.90
2017-09-11T01:05:32.703Z,11.90
2017-09-11T01:07:58.886Z,11.80
2017-09-11T01:10:25.809Z,11.70
2017-09-11T01:12:52.733Z,11.70
2017-09-11T01:15:18.933Z,11.60
2017-09-11T01:17:45.110Z,11.60
2017-09-11T01:20:11.294Z,11.50
2017-09-11T01:22:37.502Z,11.40
2017-09-11T01:25:03.711Z,11.30
2017-09-11T01:27:30.766Z,11.30
2017-09-11T01:29:57.686Z,11.30
2017-09-11T01:32:24.426Z,11.30
2017-09-11T01:34:50.630Z,11.30
2017-09-11T01:37:16.863Z,11.40
2017-09-11T01:39:43.030Z,11.40
2017-09-11T01:42:09.231Z,11.40
2017-09-11T01:44:35.431Z,11.30
2017-09-11T01:47:01.595Z,11.40
2017-09-11T01:49:27.867Z,11.30
2017-09-11T01:51:54.047Z,11.30
2017-09-11T01:54:20.239Z,11.20
2017-09-11T01:56:46.416Z,11.20
2017-09-11T01:59:12.760Z,11.10
2017-09-11T02:01:39.659Z,11.10
2017-09-11T02:04:05.842Z,11.10
2017-09-11T02:06:32.014Z,11.20
2017-09-11T02:08:58.176Z,11.10
2017-09-11T02:11:24.355Z,11.10
2017-09-11T02:13:50.568Z,11.10
2017-09-11T02:16:16.836Z,11.10
2017-09-11T02:18:43.026Z,11.10
2017-09-11T02:21:09.252Z,11.10
2017-09-11T02:23:35.436Z,11.00
2017-09-11T02:26:01.615Z,11.00
2017-09-11T02:28:27.824Z,11.00
2017-09-11T02:30:54.764Z,11.00
2017-09-11T02:33:21.686Z,11.00
2017-09-11T02:35:47.878Z,11.00
2017-09-11T02:38:14.074Z,10.90
2017-09-11T02:40:41.021Z,10.90
2017-09-11T02:43:07.977Z,10.90
2017-09-11T02:45:34.192Z,10.90
2017-09-11T02:48:00.387Z,10.80
2017-09-11T02:50:26.579Z,10.70
2017-09-11T02:52:52.801Z,10.70
2017-09-11T02:55:18.992Z,10.70
2017-09-11T02:57:45.927Z,10.60
2017-09-11T03:00:12.149Z,10.60
2017-09-11T03:02:38.321Z,10.60
2017-09-11T03:05:04.500Z,10.50
2017-09-11T03:07:30.697Z,10.60
2017-09-11T03:09:57.059Z,10.50
2017-09-11T03:12:23.285Z,10.50
2017-09-11T03:14:49.479Z,10.50
2017-09-11T03:17:15.689Z,10.50
2017-09-11T03:19:41.912Z,10.30
2017-09-11T03:22:08.844Z,10.30
2017-09-11T03:24:35.779Z,10.30
2017-09-11T03:27:02.752Z,10.30
2017-09-11T03:29:28.960Z,10.30
2017-09-11T03:31:55.898Z,10.30
2017-09-11T03:34:22.818Z,10.40
2017-09-11T03:36:48.978Z,10.40
2017-09-11T03:39:15.917Z,10.50
2017-09-11T03:41:42.859Z,10.50
2017-09-11T03:44:09.046Z,10.40
2017-09-11T03:46:36.304Z,10.60
2017-09-11T03:49:02.503Z,10.60
2017-09-11T03:51:28.718Z,10.60
2017-09-11T03:53:55.633Z,10.70
2017-09-11T03:56:21.833Z,10.60
2017-09-11T03:58:48.011Z,10.60
2017-09-11T04:01:14.916Z,10.80
2017-09-11T04:03:41.106Z,10.80
2017-09-11T04:06:07.304Z,10.80
2017-09-11T04:08:33.477Z,10.90
2017-09-11T04:11:00.509Z,10.90
2017-09-11T04:13:26.720Z,10.90
2017-09-11T04:15:53.692Z,11.00
2017-09-11T04:18:19.891Z,11.00
2017-09-11T04:20:46.811Z,11.20
2017-09-11T04:23:12.977Z,11.10
2017-09-11T04:25:39.926Z,11.30
2017-09-11T04:28:06.095Z,11.30
2017-09-11T04:30:32.288Z,11.30
2017-09-11T04:32:58.472Z,11.40
2017-09-11T04:35:24.648Z,11.50
2017-09-11T04:37:50.848Z,11.60
2017-09-11T04:40:17.056Z,11.60
2017-09-11T04:42:43.222Z,11.70
2017-09-11T04:45:09.388Z,11.70
2017-09-11T04:47:35.573Z,11.80
2017-09-11T04:50:01.788Z,11.90
2017-09-11T04:52:28.752Z,12.00
2017-09-11T04:54:54.960Z,12.00
2017-09-11T04:57:21.564Z,12.00
2017-09-11T04:59:47.761Z,12.10
2017-09-11T05:02:13.966Z,12.20
2017-09-11T05:04:40.180Z,12.20
2017-09-11T05:07:07.114Z,12.50
2017-09-11T05:09:33.274Z,12.50
2017-09-11T05:11:59.475Z,12.60
2017-09-11T05:14:25.623Z,12.60
2017-09-11T05:16:51.880Z,12.70
2017-09-11T05:19:18.068Z,12.70
2017-09-11T05:21:44.250Z,12.80
2017-09-11T05:24:10.445Z,12.80
2017-09-11T05:26:36.651Z,12.90
2017-09-11T05:29:03.793Z,13.20
2017-09-11T05:31:29.981Z,13.20
2017-09-11T05:33:56.175Z,13.20
2017-09-11T05:36:22.339Z,13.10
2017-09-11T05:38:48.517Z,13.10
2017-09-11T05:41:14.757Z,13.00
2017-09-11T05:43:40.941Z,13.10
2017-09-11T05:46:07.079Z,13.00
2017-09-11T05:48:33.259Z,13.00
2017-09-11T05:50:59.470Z,13.10
2017-09-11T05:53:25.637Z,13.20
2017-09-11T05:55:51.810Z,13.20
2017-09-11T05:58:18.775Z,13.40
2017-09-11T06:00:44.948Z,13.40
2017-09-11T06:03:11.152Z,13.50
2017-09-11T06:05:37.388Z,13.70
2017-09-11T06:08:03.610Z,13.70
2017-09-11T06:10:29.847Z,13.80
2017-09-11T06:12:56.059Z,14.00
2017-09-11T06:15:22.211Z,14.00
2017-09-11T06:17:48.917Z,14.20
2017-09-11T06:20:15.108Z,14.30
2017-09-11T06:22:41.301Z,14.30
2017-09-11T06:25:07.503Z,14.30
2017-09-11T06:27:33.701Z,14.20
2017-09-11T06:30:00.647Z,14.20
2017-09-11T06:32:27.616Z,14.10
2017-09-11T06:34:53.781Z,14.10
2017-09-11T06:37:19.941Z,14.00
2017-09-11T06:39:46.896Z,14.00
2017-09-11T06:42:13.826Z,14.00
2017-09-11T06:44:40.008Z,14.00
2017-09-11T06:47:06.245Z,14.10
2017-09-11T06:49:32.460Z,14.10
2017-09-11T06:51:58.648Z,14.20
2017-09-11T06:54:25.611Z,14.40
2017-09-11T06:56:51.844Z,14.40
2017-09-11T06:59:18.041Z,14.50
2017-09-11T07:01:44.271Z,14.70
2017-09-11T07:04:11.155Z,15.30
2017-09-11T07:06:37.349Z,15.30
2017-09-11T07:09:04.291Z,15.60
2017-09-11T07:11:30.460Z,15.60
2017-09-11T07:13:56.631Z,15.90
2017-09-11T07:16:22.813Z,16.00
2017-09-11T07:18:49.005Z,15.90
2017-09-11T07:21:15.179Z,16.00
2017-09-11T07:23:41.418Z,16.10
2017-09-11T07:26:07.619Z,16.30
2017-09-11T07:28:33.912Z,16.70
2017-09-11T07:31:00.349Z,16.80
2017-09-11T07:33:26.537Z,17.00
2017-09-11T07:35:53.318Z,17.10
2017-09-11T07:38:19.665Z,17.20
2017-09-11T07:40:46.624Z,17.30
2017-09-11T07:43:12.798Z,17.30
2017-09-11T07:45:39.011Z,17.30
2017-09-11T07:48:05.196Z,17.60
2017-09-11T07:50:32.112Z,17.90
2017-09-11T07:52:58.288Z,17.90
2017-09-11T07:55:24.481Z,18.00
2017-09-11T07:57:51.426Z,17.90
2017-09-11T08:00:17.650Z,17.90
2017-09-11T08:02:44.585Z,18.20
2017-09-11T08:05:10.764Z,18.20
2017-09-11T08:07:37.364Z,18.40
2017-09-11T08:10:03.543Z,18.90
2017-09-11T08:12:29.778Z,18.70
2017-09-11T08:14:56.063Z,19.10
2017-09-11T08:17:22.970Z,19.40
2017-09-11T08:19:49.128Z,19.40
2017-09-11T08:22:16.080Z,19.30
2017-09-11T08:24:43.039Z,19.20
2017-09-11T08:27:09.245Z,19.20
2017-09-11T08:29:35.469Z,19.60
2017-09-11T08:32:01.636Z,19.70
2017-09-11T08:34:27.864Z,19.20
2017-09-11T08:36:54.073Z,19.20
2017-09-11T08:39:21.005Z,19.60
2017-09-11T08:41:47.935Z,19.90
2017-09-11T08:44:14.145Z,19.90
2017-09-11T08:46:40.339Z,20.00
2017-09-11T08:49:06.519Z,20.10
2017-09-11T08:51:32.695Z,19.80
2017-09-11T08:53:58.886Z,20.00
2017-09-11T08:56:25.044Z,19.90
2017-09-11T08:58:51.286Z,20.30
2017-09-11T09:01:17.483Z,20.70
2017-09-11T09:03:44.450Z,20.50
2017-09-11T09:06:10.665Z,20.50
2017-09-11T09:08:37.594Z,20.70
2017-09-11T09:11:04.544Z,21.50
2017-09-11T09:13:31.518Z,21.80
2017-09-11T09:15:57.702Z,21.80
2017-09-11T09:18:23.858Z,22.10
2017-09-11T09:20:50.786Z,21.60
2017-09-11T09:23:17.700Z,21.50
2017-09-11T09:25:43.882Z,21.50
2017-09-11T09:28:10.070Z,21.00
2017-09-11T09:30:36.263Z,21.10
2017-09-11T09:33:03.286Z,21.10
2017-09-11T09:35:29.467Z,20.90
2017-09-11T09:37:55.692Z,20.90
2017-09-11T09:40:21.846Z,21.00
2017-09-11T09:42:48.775Z,20.60
2017-09-11T09:45:14.942Z,20.60
2017-09-11T09:47:41.113Z,20.30
2017-09-11T09:50:07.343Z,20.30
2017-09-11T09:52:33.517Z,20.30
2017-09-11T09:55:00.445Z,20.80
2017-09-11T09:57:28.241Z,21.20
2017-09-11T09:59:54.427Z,21.20
2017-09-11T10:02:20.599Z,21.10
2017-09-11T10:04:46.808Z,20.60
2017-09-11T10:07:13.730Z,20.40
2017-09-11T10:09:39.919Z,20.40
2017-09-11T10:12:06.128Z,20.60
2017-09-11T10:14:32.303Z,20.30
2017-09-11T10:16:58.500Z,20.00
2017-09-11T10:19:24.739Z,20.00
2017-09-11T10:21:50.919Z,19.90
2017-09-11T10:24:17.848Z,20.30
2017-09-11T10:26:44.047Z,20.30
2017-09-11T10:29:10.216Z,20.60
2017-09-11T10:31:36.499Z,20.60
2017-09-11T10:34:02.695Z,20.90
2017-09-11T10:36:28.874Z,20.70
2017-09-11T10:38:55.062Z,20.50
2017-09-11T10:41:21.264Z,20.30
2017-09-11T10:43:51.490Z,19.90
2017-09-11T10:46:18.403Z,20.00
2017-09-11T10:48:44.591Z,19.90
2017-09-11T10:51:10.785Z,19.80
2017-09-11T10:53:37.711Z,19.90
2017-09-11T10:56:03.922Z,19.90
2017-09-11T10:58:30.093Z,20.10
2017-09-11T11:00:56.339Z,20.00
2017-09-11T11:03:22.718Z,20.00
2017-09-11T11:05:48.897Z,20.10
2017-09-11T11:08:15.073Z,20.00
2017-09-11T11:10:42.087Z,19.90
2017-09-11T11:13:08.311Z,19.90
2017-09-11T11:15:34.497Z,20.30
2017-09-11T11:18:00.727Z,20.30
2017-09-11T11:20:26.989Z,20.40
2017-09-11T11:22:53.233Z,20.60
2017-09-11T11:25:19.453Z,20.70
2017-09-11T11:27:45.659Z,21.00
2017-09-11T11:30:11.868Z,21.20
2017-09-11T11:32:38.819Z,22.60
2017-09-11T11:35:05.845Z,24.00
2017-09-11T11:37:32.011Z,24.00
2017-09-11T11:39:58.969Z,26.20
2017-09-11T11:42:32.166Z,26.20
2017-09-11T11:44:58.388Z,26.00
2017-09-11T11:47:24.538Z,27.60
2017-09-11T11:49:50.741Z,26.60
2017-09-11T11:52:17.915Z,28.10
2017-09-11T11:54:44.185Z,27.70
2017-09-11T11:57:10.351Z,27.30
2017-09-11T11:59:36.581Z,28.40
2017-09-11T12:02:02.800Z,28.70
2017-09-11T12:04:29.740Z,28.50
2017-09-11T12:06:55.956Z,28.50
2017-09-11T12:09:29.915Z,28.40
2017-09-11T12:11:56.144Z,28.40
2017-09-11T12:14:22.368Z,29.40
2017-09-11T12:16:48.560Z,28.40
2017-09-11T12:19:14.778Z,28.80
2017-09-11T12:21:41.725Z,30.80
2017-09-11T12:24:08.654Z,30.60
2017-09-11T12:26:34.855Z,30.60
2017-09-11T12:29:01.055Z,29.00
2017-09-11T12:31:27.252Z,28.90
2017-09-11T12:33:54.238Z,30.40
2017-09-11T12:36:20.424Z,30.40
2017-09-11T12:38:46.604Z,29.40
2017-09-11T12:41:12.799Z,29.70
2017-09-11T12:43:39.757Z,29.60
2017-09-11T12:46:05.911Z,29.50
2017-09-11T12:48:32.134Z,27.20
2017-09-11T12:50:58.333Z,28.50
2017-09-11T12:53:24.517Z,29.60
2017-09-11T12:55:50.720Z,28.60
2017-09-11T12:58:16.917Z,27.40
2017-09-11T13:00:43.145Z,27.80
2017-09-11T13:03:10.102Z,26.10
2017-09-11T13:05:36.335Z,26.10
2017-09-11T13:08:02.587Z,26.00
2017-09-11T13:10:28.798Z,26.00
2017-09-11T13:12:55.013Z,25.10
2017-09-11T13:15:21.180Z,24.90
2017-09-11T13:17:47.403Z,23.90
2017-09-11T13:20:13.587Z,23.80
2017-09-11T13:22:39.780Z,23.70
2017-09-11T13:25:05.983Z,23.90
2017-09-11T13:27:32.184Z,24.00
2017-09-11T13:29:58.387Z,23.50
2017-09-11T13:32:25.335Z,23.10
2017-09-11T13:34:52.282Z,22.60
2017-09-11T13:37:19.209Z,23.20
2017-09-11T13:39:45.456Z,23.20
2017-09-11T13:42:12.392Z,23.20
2017-09-11T13:44:39.304Z,22.80
2017-09-11T13:47:05.546Z,22.70
2017-09-11T13:49:31.734Z,22.50
2017-09-11T13:52:02.879Z,22.00
2017-09-11T13:54:29.119Z,22.30
2017-09-11T13:56:55.305Z,22.80
2017-09-11T13:59:22.258Z,23.10
2017-09-11T14:01:49.219Z,22.40
2017-09-11T14:04:15.409Z,22.40
2017-09-11T14:06:42.396Z,22.90
2017-09-11T14:09:08.612Z,22.90
2017-09-11T14:11:34.770Z,23.40
2017-09-11T14:14:00.971Z,22.50
2017-09-11T14:16:27.169Z,22.40
2017-09-11T14:18:53.398Z,22.10
2017-09-11T14:21:19.571Z,21.90
2017-09-11T14:23:45.933Z,21.90
2017-09-11T14:26:12.116Z,22.10
2017-09-11T14:28:38.288Z,22.30
2017-09-11T14:31:04.482Z,22.20
2017-09-11T14:33:30.717Z,21.80
2017-09-11T14:35:56.893Z,21.60
2017-09-11T14:38:23.088Z,21.10
2017-09-11T14:40:49.305Z,21.10
2017-09-11T14:43:15.508Z,21.00
2017-09-11T14:45:41.712Z,21.00
2017-09-11T14:48:07.895Z,20.90
2017-09-11T14:50:34.112Z,20.70
2017-09-11T14:53:00.327Z,20.60
2017-09-11T14:55:26.512Z,20.50
2017-09-11T14:57:52.689Z,20.30
2017-09-11T15:00:18.894Z,20.20
2017-09-11T15:02:45.809Z,20.20
2017-09-11T15:05:11.991Z,20.20
2017-09-11T15:07:38.214Z,20.10
2017-09-11T15:10:04.401Z,20.00
2017-09-11T15:12:30.579Z,20.00
2017-09-11T15:14:56.763Z,20.00
2017-09-11T15:17:23.683Z,20.00
2017-09-11T15:19:49.867Z,20.00
2017-09-11T15:22:16.197Z,20.00
2017-09-11T15:24:42.379Z,20.00
2017-09-11T15:27:08.541Z,20.10
2017-09-11T15:29:35.472Z,20.10
2017-09-11T15:32:02.404Z,20.10
2017-09-11T15:34:28.576Z,20.10
2017-09-11T15:36:54.779Z,20.20
2017-09-11T15:39:21.681Z,20.30
2017-09-11T15:41:47.854Z,20.30
2017-09-11T15:44:14.784Z,20.50
2017-09-11T15:46:41.706Z,20.60
2017-09-11T15:49:07.988Z,20.60
2017-09-11T15:51:34.166Z,21.00
2017-09-11T15:54:00.333Z,21.30
2017-09-11T15:56:26.592Z,23.20
2017-09-11T15:58:52.800Z,25.50
2017-09-11T16:01:19.710Z,22.00
2017-09-11T16:03:45.896Z,22.00
2017-09-11T16:06:12.104Z,21.80
2017-09-11T16:08:38.282Z,21.30
2017-09-11T16:11:04.495Z,21.10
2017-09-11T16:13:30.674Z,21.20
2017-09-11T16:15:56.867Z,21.10
2017-09-11T16:18:23.080Z,21.00
2017-09-11T16:20:49.314Z,20.90
2017-09-11T16:23:15.507Z,21.10
2017-09-11T16:25:41.733Z,21.30
2017-09-11T16:28:07.947Z,21.30
2017-09-11T16:30:34.867Z,20.90
2017-09-11T16:33:01.061Z,20.90
2017-09-11T16:35:27.284Z,20.80
2017-09-11T16:37:53.448Z,20.40
2017-09-11T16:40:19.603Z,20.50
2017-09-11T16:42:46.551Z,20.20
2017-09-11T16:45:45.207Z,20.10
2017-09-11T16:48:11.407Z,20.20
2017-09-11T16:50:37.572Z,20.20
2017-09-11T16:53:03.796Z,20.10
2017-09-11T16:55:30.014Z,19.80
2017-09-11T16:57:56.233Z,19.70
2017-09-11T17:00:22.444Z,19.40
2017-09-11T17:02:48.627Z,19.30
2017-09-11T17:05:15.536Z,19.20
2017-09-11T17:07:41.739Z,19.20
2017-09-11T17:10:07.961Z,19.20
2017-09-11T17:12:34.156Z,19.10
2017-09-11T17:15:01.075Z,18.90
2017-09-11T17:17:27.277Z,18.80
2017-09-11T17:19:53.501Z,18.70
2017-09-11T17:22:19.681Z,18.60
2017-09-11T17:24:46.761Z,18.50
2017-09-11T17:27:12.985Z,18.50
2017-09-11T17:29:39.161Z,18.40
2017-09-11T17:32:05.331Z,18.30
2017-09-11T17:34:32.413Z,18.20
2017-09-11T17:36:58.658Z,18.20
2017-09-11T17:39:25.934Z,18.20
2017-09-11T17:41:53.378Z,18.20
2017-09-11T17:44:19.628Z,18.10
2017-09-11T17:46:46.579Z,18.00
2017-09-11T17:49:14.042Z,17.80
2017-09-11T17:51:40.960Z,17.90
2017-09-11T17:54:07.177Z,17.90
2017-09-11T17:56:33.384Z,17.90
2017-09-11T17:58:59.554Z,17.80
2017-09-11T18:01:26.772Z,17.80
2017-09-11T18:03:59.962Z,17.70
2017-09-11T18:06:26.196Z,17.70
2017-09-11T18:08:52.480Z,17.60
2017-09-11T18:11:18.680Z,17.60
2017-09-11T18:13:44.965Z,17.60
2017-09-11T18:16:11.144Z,17.60
2017-09-11T18:18:38.152Z,17.60
2017-09-11T18:21:04.361Z,17.60
2017-09-11T18:23:30.531Z,17.40
2017-09-11T18:25:56.742Z,17.40
2017-09-11T18:28:22.923Z,17.30
2017-09-11T18:30:51.030Z,17.10
2017-09-11T18:33:17.248Z,17.00
2017-09-11T18:35:43.448Z,17.00
2017-09-11T18:38:10.400Z,16.80
2017-09-11T18:40:37.362Z,16.70
2017-09-11T18:43:03.561Z,16.70
2017-09-11T18:45:30.672Z,16.60
2017-09-11T18:47:56.896Z,16.60
2017-09-11T18:50:23.112Z,16.60
2017-09-11T18:52:49.493Z,16.50
2017-09-11T18:55:17.429Z,16.30
2017-09-11T18:57:43.620Z,16.30
2017-09-11T19:00:09.844Z,16.30
2017-09-11T19:02:36.765Z,16.20
2017-09-11T19:05:03.719Z,16.20
2017-09-11T19:07:29.967Z,16.20
2017-09-11T19:09:56.299Z,16.20
2017-09-11T19:12:23.486Z,16.10
2017-09-11T19:14:49.651Z,16.10
2017-09-11T19:17:16.597Z,16.00
2017-09-11T19:19:43.553Z,16.00
2017-09-11T19:22:10.512Z,16.00
2017-09-11T19:24:37.412Z,15.90
2017-09-11T19:27:03.628Z,15.90
2017-09-11T19:29:29.828Z,15.90
2017-09-11T19:31:55.991Z,15.90
2017-09-11T19:34:22.270Z,15.80
2017-09-11T19:36:48.463Z,15.70
2017-09-11T19:39:14.666Z,15.70
2017-09-11T19:41:40.882Z,15.60
2017-09-11T19:44:07.076Z,15.60
2017-09-11T19:46:33.976Z,15.50
2017-09-11T19:49:00.180Z,15.50
2017-09-11T19:51:26.368Z,15.50
2017-09-11T19:53:53.270Z,15.50
2017-09-11T19:56:19.478Z,15.50
2017-09-11T19:58:45.652Z,15.40
2017-09-11T20:01:11.852Z,15.40
2017-09-11T20:03:38.046Z,15.30
2017-09-11T20:06:04.226Z,15.30
2017-09-11T20:08:30.415Z,15.30
2017-09-11T20:10:56.644Z,15.30
2017-09-11T20:13:22.827Z,15.20
2017-09-11T20:15:49.777Z,15.10
2017-09-11T20:18:16.178Z,15.00
2017-09-11T20:20:42.351Z,15.10
2017-09-11T20:23:09.307Z,14.90
2017-09-11T20:25:35.519Z,14.90
2017-09-11T20:28:02.483Z,14.80
2017-09-11T20:30:28.709Z,14.80
2017-09-11T20:32:54.896Z,14.80
2017-09-11T20:35:21.112Z,14.80
2017-09-11T20:37:47.387Z,14.70
2017-09-11T20:40:13.700Z,14.80
2017-09-11T20:42:39.928Z,14.80
2017-09-11T20:45:06.223Z,14.70
2017-09-11T20:47:32.444Z,14.70
2017-09-11T20:49:58.692Z,14.80
2017-09-11T20:52:24.922Z,14.80
2017-09-11T20:54:51.190Z,14.70
2017-09-11T20:57:17.465Z,14.70
2017-09-11T20:59:43.768Z,14.70
2017-09-11T21:02:09.960Z,14.80
2017-09-11T21:04:36.172Z,14.70
2017-09-11T21:07:02.476Z,14.70
2017-09-11T21:09:28.654Z,14.70
2017-09-11T21:11:55.602Z,14.60
2017-09-11T21:14:22.226Z,14.60
2017-09-11T21:16:49.982Z,14.60
2017-09-11T21:19:16.177Z,14.50
2017-09-11T21:21:42.416Z,14.50
2017-09-11T21:24:08.599Z,14.50
2017-09-11T21:26:34.821Z,14.50
2017-09-11T21:29:01.807Z,14.40
2017-09-11T21:31:28.040Z,14.40
2017-09-11T21:33:54.244Z,14.40
2017-09-11T21:36:20.463Z,14.30
2017-09-11T21:38:47.405Z,14.30
2017-09-11T21:41:14.347Z,14.30
2017-09-11T21:43:41.315Z,14.20
2017-09-11T21:46:07.528Z,14.20
2017-09-11T21:48:34.456Z,14.20
2017-09-11T21:51:01.392Z,14.10
2017-09-11T21:53:27.595Z,14.10
2017-09-11T21:55:53.780Z,14.10
2017-09-11T21:58:20.615Z,14.10
2017-09-11T22:00:47.575Z,14.10
2017-09-11T22:03:13.760Z,14.10
2017-09-11T22:05:39.976Z,14.00
2017-09-11T22:08:06.163Z,14.00
2017-09-11T22:10:32.361Z,14.00
2017-09-11T22:12:58.552Z,14.00
2017-09-11T22:15:24.772Z,14.00
2017-09-11T22:17:50.992Z,14.00
2017-09-11T22:20:17.223Z,14.00
2017-09-11T22:22:43.397Z,14.00
2017-09-11T22:25:09.584Z,14.00
2017-09-11T22:27:35.758Z,14.00
2017-09-11T22:30:01.948Z,13.90
2017-09-11T22:32:28.168Z,13.90
2017-09-11T22:34:54.413Z,14.00
2017-09-11T22:37:20.634Z,13.90
2017-09-11T22:39:53.830Z,13.90
2017-09-11T22:42:26.933Z,13.90
2017-09-11T22:44:53.189Z,13.80
2017-09-11T22:47:20.129Z,13.70
2017-09-11T22:49:46.308Z,13.70
2017-09-11T22:52:12.494Z,13.70
2017-09-11T22:54:38.702Z,13.70
2017-09-11T22:57:04.927Z,13.70
2017-09-11T22:59:31.848Z,13.70
2017-09-11T23:01:58.071Z,13.70
2017-09-11T23:04:24.267Z,13.70
2017-09-11T23:06:50.465Z,13.70
2017-09-11T23:09:17.415Z,13.60
2017-09-11T23:11:44.343Z,13.60
2017-09-11T23:14:10.561Z,13.60
2017-09-11T23:16:36.782Z,13.60
2017-09-11T23:19:02.960Z,13.50
2017-09-11T23:21:29.895Z,13.50
2017-09-11T23:23:56.832Z,13.60
2017-09-11T23:26:23.015Z,13.60
2017-09-11T23:28:49.247Z,13.60
2017-09-11T23:31:15.470Z,13.70
2017-09-11T23:33:41.631Z,13.60
2017-09-11T23:36:14.891Z,13.60
2017-09-11T23:38:41.149Z,13.60
2017-09-11T23:41:07.319Z,13.70
2017-09-11T23:43:34.265Z,13.80
2017-09-11T23:46:01.201Z,13.90
2017-09-11T23:48:28.154Z,13.90
2017-09-11T23:50:54.365Z,13.80
2017-09-11T23:53:21.300Z,13.90
2017-09-11T23:55:47.489Z,13.80
2017-09-11T23:58:13.675Z,13.90
